Time;durP1;ratioP1;P1;durP2;ratioP2;P2;SDS_P1;SDS_P2;PMS_P1;PMS_P2;Temp;Humidity;BMP_temperature;BMP_pressure;BME280_temperature;BME280_humidity;BME280_pressure;Samples;Min_cycle;Max_cycle;Signal;HPM_P1;HPM_P2
2023/10/04 03:58:54;;;;;;;;;;;;;;;;;;5025304;28;19929;-72
2023/10/04 04:01:21;;;;;;;;;;;;;;;;;;5016790;28;19925;-73
2023/10/04 04:03:49;;;;;;;;;;;;;;;;;;5016224;28;20264;-73
2023/10/04 04:06:16;;;;;;;;;;;;;;;;;;5016483;28;19932;-71
2023/10/04 04:08:43;;;;;;;;;;;;;;;;;;5016227;28;20391;-73
2023/10/04 04:11:10;;;;;;;;;;;;;;;;;;5053866;23;19929;-75
2023/10/04 04:13:37;;;;;;;;;;;;;;;;;;5036241;28;19925;-75
2023/10/04 04:16:09;;;;;;;;;;;;;;;;;;5039381;28;20007;-76
2023/10/04 04:18:37;;;;;;;;;;;;;;;;;;5040694;28;19925;-76
2023/10/04 04:21:05;;;;;;;;;;;;;;;;;;5042944;28;20370;-76
2023/10/04 04:23:32;;;;;;;;;;;;;;;;;;5043419;28;19924;-76
2023/10/04 04:25:59;;;;;;;;;;;;;;;;;;5044832;28;19929;-76
2023/10/04 04:28:26;;;;;;;;;;;;;;;;;;5040988;28;19925;-76
2023/10/04 04:30:53;;;;;;;;;;;;;;;;;;5039777;28;19925;-76
2023/10/04 04:33:26;;;;;;;;;;;;;;;;;;5038859;28;19929;-76
2023/10/04 04:36:00;;;;;;;;;;;;;;;;;;5038939;28;20390;-75
2023/10/04 04:38:28;;;;;;;;;;;;;;;;;;5036090;28;19929;-75
2023/10/04 04:40:57;;;;;;;;;;;;;;;;;;5035727;28;19925;-74
2023/10/04 04:43:35;;;;;;;;;;;;;;;;;;5035734;28;19979;-74
2023/10/04 04:46:06;;;;;;;;;;;;;;;;;;5035497;28;20401;-72
2023/10/04 04:48:36;;;;;;;;;;;;;;;;;;5036205;28;19932;-73
2023/10/04 04:51:10;;;;;;;;;;;;;;;;;;5035500;28;19929;-74
2023/10/04 04:53:39;;;;;;;;;;;;;;;;;;5035645;28;19932;-74
2023/10/04 04:56:07;;;;;;;;;;;;;;;;;;5035526;28;19925;-74
2023/10/04 04:58:34;;;;;;;;;;;;;;;;;;5035196;28;19931;-76
2023/10/04 05:01:02;;;;;;;;;;;;;;;;;;5035511;28;20383;-73
2023/10/04 05:03:29;;;;;;;;;;;;;;;;;;5035582;28;19928;-73
2023/10/04 05:05:56;;;;;;;;;;;;;;;;;;5035801;28;19976;-74
2023/10/04 05:08:24;;;;;;;;;;;;;;;;;;5035275;28;19932;-74
2023/10/04 05:10:51;;;;;;;;;;;;;;;;;;5034833;28;19925;-74
2023/10/04 05:13:18;;;;;;;;;;;;;;;;;;5035463;28;19932;-76
2023/10/04 05:15:45;;;;;;;;;;;;;;;;;;5037549;28;19932;-76
2023/10/04 05:18:15;;;;;;;;;;;;;;;;;;5040360;28;20012;-76
2023/10/04 05:20:42;;;;;;;;;;;;;;;;;;5040564;28;19929;-76
2023/10/04 05:23:09;;;;;;;;;;;;;;;;;;5037348;28;20016;-76
2023/10/04 10:42:07;;;;;;;;;;;16.40;99.90;;;;;;5578354;22;19925;-74
2023/10/04 10:44:38;;;;;;;;;;;16.40;99.90;;;;;;5018124;28;20388;-73
2023/10/04 10:47:19;;;;;;;;;;;16.40;99.90;;;;;;5018181;28;20477;-73
2023/10/04 10:49:48;;;;;;;;;;;16.50;99.90;;;;;;5018208;28;19972;-73
2023/10/04 10:52:25;;;;;;;;;;;16.60;99.90;;;;;;5018077;28;19957;-73
2023/10/04 10:54:52;;;;;;;;;;;16.80;99.90;;;;;;5018044;28;19932;-73
2023/10/04 10:57:20;;;;;;;;;;;17.00;99.90;;;;;;5017753;28;20306;-73
2023/10/04 10:59:49;;;;;;;;;;;17.00;99.90;;;;;;5017985;28;19925;-73
2023/10/04 11:02:16;;;;;;;;;;;16.90;99.90;;;;;;5017981;28;20020;-72
2023/10/04 11:04:42;;;;;;;;;;;16.70;99.90;;;;;;5018069;28;19925;-72
2023/10/04 11:07:11;;;;;;;;;;;16.60;99.90;;;;;;5017607;28;19988;-72
2023/10/04 11:09:39;;;;;;;;;;;16.40;99.90;;;;;;5017826;28;19932;-72
2023/10/04 11:12:07;;;;;;;;;;;16.20;99.90;;;;;;5017469;28;20438;-73
2023/10/04 11:14:36;;;;;;;;;;;16.00;99.90;;;;;;5040737;22;20361;-74
2023/10/04 11:17:03;;;;;;;;;;;16.00;99.90;;;;;;5018055;28;19925;-75
2023/10/04 11:19:30;;;;;;;;;;;16.10;99.90;;;;;;5017688;28;19951;-75
2023/10/04 11:21:59;;;;;;;;;;;16.10;99.90;;;;;;5017753;28;19953;-74
2023/10/04 11:24:26;;;;;;;;;;;16.20;99.90;;;;;;5017610;28;20379;-75
2023/10/04 11:26:56;;;;;;;;;;;16.30;99.90;;;;;;5017830;28;19932;-74
2023/10/04 11:29:23;;;;;;;;;;;16.30;99.90;;;;;;5018211;28;19976;-74
2023/10/04 11:31:51;;;;;;;;;;;16.30;99.90;;;;;;5017820;28;19932;-75
2023/10/04 11:34:18;;;;;;;;;;;16.20;99.90;;;;;;5017767;28;19948;-75
2023/10/04 11:36:46;;;;;;;;;;;16.10;99.90;;;;;;5017640;28;20405;-75
2023/10/04 11:39:18;;;;;;;;;;;16.10;99.90;;;;;;5017057;28;20366;-76
2023/10/04 11:41:50;;;;;;;;;;;16.10;99.90;;;;;;5017759;28;19925;-75
2023/10/04 11:44:18;;;;;;;;;;;16.00;99.90;;;;;;5017636;28;20011;-74
2023/10/04 11:46:56;;;;;;;;;;;16.00;99.90;;;;;;5016968;28;20386;-75
2023/10/04 11:49:23;;;;;;;;;;;16.00;99.90;;;;;;5017443;28;19926;-76
2023/10/04 11:51:50;;;;;;;;;;;16.10;99.90;;;;;;5017238;28;19926;-76
2023/10/04 11:54:16;;;;;;;;;;;16.40;99.90;;;;;;5015704;28;19972;-75
2023/10/04 11:56:43;;;;;;;;;;;16.50;99.90;;;;;;5017141;28;19948;-75
2023/10/04 11:59:10;;;;;;;;;;;16.60;99.90;;;;;;5016755;28;20406;-75
2023/10/04 12:01:42;;;;;;;;;;;16.60;99.90;;;;;;5017252;28;19926;-74
2023/10/04 12:04:10;;;;;;;;;;;16.70;99.90;;;;;;5016885;28;19971;-75
2023/10/04 12:06:37;;;;;;;;;;;16.70;99.90;;;;;;5016922;28;19949;-74
2023/10/04 12:09:06;;;;;;;;;;;16.80;99.90;;;;;;5016845;28;20379;-75
2023/10/04 12:11:35;;;;;;;;;;;16.90;99.90;;;;;;5017594;28;20389;-74
2023/10/04 12:14:04;;;;;;;;;;;16.90;99.90;;;;;;5017026;28;20309;-74
2023/10/04 12:16:32;;;;;;;;;;;16.90;99.90;;;;;;5016993;28;19933;-75
2023/10/04 12:18:59;;;;;;;;;;;16.70;99.90;;;;;;5016605;28;20389;-74
2023/10/04 12:21:27;;;;;;;;;;;16.60;99.90;;;;;;5016510;28;19925;-74
2023/10/04 12:23:54;;;;;;;;;;;16.60;99.90;;;;;;5016366;28;19968;-74
2023/10/04 12:26:21;;;;;;;;;;;16.50;99.90;;;;;;5016396;28;19929;-74
2023/10/04 12:28:48;;;;;;;;;;;16.40;99.90;;;;;;5016072;28;20365;-74
2023/10/04 12:31:15;;;;;;;;;;;16.30;99.90;;;;;;5016274;28;19976;-74
2023/10/04 12:33:42;;;;;;;;;;;16.30;99.90;;;;;;5015957;28;19926;-74
2023/10/04 12:36:09;;;;;;;;;;;16.30;99.90;;;;;;5016095;28;19932;-74
2023/10/04 12:38:37;;;;;;;;;;;16.30;99.90;;;;;;5016011;28;19980;-75
2023/10/04 12:41:05;;;;;;;;;;;16.30;99.90;;;;;;5015954;28;19926;-76
2023/10/04 12:43:32;;;;;;;;;;;16.30;99.90;;;;;;5015868;28;19925;-76
2023/10/04 12:45:59;;;;;;;;;;;16.30;99.90;;;;;;5015876;28;20302;-76
2023/10/04 12:48:25;;;;;;;;;;;16.30;99.90;;;;;;5015703;28;20294;-76
2023/10/04 12:50:52;;;;;;;;;;;16.30;99.90;;;;;;5015808;28;19977;-76
2023/10/04 12:53:19;;;;;;;;;;;16.30;99.90;;;;;;5015816;28;20016;-76
2023/10/04 12:55:48;;;;;;;;;;;16.30;99.90;;;;;;5016055;28;19926;-76
2023/10/04 12:58:14;;;;;;;;;;;16.20;99.90;;;;;;5015995;28;20457;-76
2023/10/04 13:00:42;;;;;;;;;;;16.30;99.90;;;;;;5016016;28;19935;-76
2023/10/04 13:03:08;;;;;;;;;;;16.30;99.90;;;;;;5017179;28;19968;-78
2023/10/04 13:05:37;;;;;;;;;;;16.40;99.90;;;;;;5018681;28;19926;-77
2023/10/04 13:08:04;;;;;;;;;;;16.50;99.90;;;;;;5016618;28;19948;-77
2023/10/04 13:10:32;;;;;;;;;;;16.60;99.90;;;;;;5016894;28;19936;-77
2023/10/04 13:13:00;;;;;;;;;;;16.70;99.90;;;;;;5017090;28;19925;-77
2023/10/04 13:15:29;;;;;;;;;;;16.80;99.90;;;;;;5016332;28;19926;-77
2023/10/04 13:17:55;;;;;;;;;;;16.80;99.90;;;;;;5017512;28;19925;-77
2023/10/04 13:20:25;;;;;;;;;;;16.80;99.90;;;;;;5016382;28;19936;-77
2023/10/04 13:22:52;;;;;;;;;;;16.80;99.90;;;;;;5016136;28;19929;-76
2023/10/04 13:25:18;;;;;;;;;;;16.70;99.90;;;;;;5015378;28;20386;-77
2023/10/04 13:27:45;;;;;;;;;;;16.80;99.90;;;;;;5016585;28;19975;-78
2023/10/04 13:30:14;;;;;;;;;;;16.80;99.90;;;;;;5016660;28;19930;-77
2023/10/04 13:32:43;;;;;;;;;;;16.70;99.90;;;;;;5015573;28;19926;-77
2023/10/04 13:35:11;;;;;;;;;;;16.80;99.90;;;;;;5014908;28;20386;-77
2023/10/04 13:37:38;;;;;;;;;;;16.80;99.90;;;;;;5015460;28;19925;-77
2023/10/04 13:40:10;;;;;;;;;;;16.80;99.90;;;;;;5016966;28;20024;-78
2023/10/04 13:42:39;;;;;;;;;;;16.80;99.90;;;;;;5015067;28;20005;-77
2023/10/04 13:45:06;;;;;;;;;;;16.80;99.90;;;;;;5014837;28;19926;-77
2023/10/04 13:47:35;;;;;;;;;;;16.80;99.90;;;;;;5014866;28;19925;-77
2023/10/04 13:50:03;;;;;;;;;;;16.80;99.90;;;;;;5014568;28;20390;-77
2023/10/04 13:52:29;;;;;;;;;;;16.80;99.90;;;;;;5015637;28;20387;-78
2023/10/04 13:54:56;;;;;;;;;;;16.90;99.90;;;;;;5033116;28;19926;-73
2023/10/04 13:57:22;;;;;;;;;;;17.10;99.90;;;;;;5022823;28;19937;-75
2023/10/04 13:59:49;;;;;;;;;;;17.30;99.90;;;;;;5015005;28;19925;-75
2023/10/04 14:02:18;;;;;;;;;;;17.50;99.90;;;;;;5016600;28;19933;-74
2023/10/04 14:04:46;;;;;;;;;;;17.60;99.90;;;;;;5015019;28;20107;-73
2023/10/04 14:07:13;;;;;;;;;;;17.60;99.90;;;;;;5014607;28;19929;-75
2023/10/04 14:09:40;;;;;;;;;;;17.70;99.90;;;;;;5014826;28;19925;-74
2023/10/04 14:12:09;;;;;;;;;;;17.70;99.90;;;;;;5016271;28;20252;-76
2023/10/04 14:14:36;;;;;;;;;;;17.60;99.90;;;;;;5015404;28;19926;-75
2023/10/04 14:17:05;;;;;;;;;;;17.70;99.90;;;;;;5015774;28;19925;-75
2023/10/04 14:19:32;;;;;;;;;;;17.70;99.90;;;;;;5015757;28;19929;-76
2023/10/04 14:22:01;;;;;;;;;;;17.70;99.90;;;;;;5014514;28;19925;-76
2023/10/04 14:24:28;;;;;;;;;;;17.80;99.90;;;;;;5014293;28;19926;-76
2023/10/04 14:26:57;;;;;;;;;;;17.90;99.90;;;;;;5014400;28;19925;-76
2023/10/04 14:29:23;;;;;;;;;;;17.90;99.90;;;;;;5014407;28;20414;-77
2023/10/04 14:31:50;;;;;;;;;;;17.90;99.90;;;;;;5015166;28;19926;-75
2023/10/04 14:34:16;;;;;;;;;;;17.80;99.90;;;;;;5014610;28;20390;-77
2023/10/04 14:36:43;;;;;;;;;;;17.80;99.90;;;;;;5014565;28;20370;-76
2023/10/04 14:39:11;;;;;;;;;;;17.70;99.90;;;;;;5014859;28;19932;-76
2023/10/04 14:41:39;;;;;;;;;;;17.60;99.90;;;;;;5015014;28;19926;-76
2023/10/04 14:44:06;;;;;;;;;;;17.50;99.90;;;;;;5014594;28;19925;-75
2023/10/04 14:46:32;;;;;;;;;;;17.40;99.90;;;;;;5015269;28;19930;-75
2023/10/04 14:48:59;;;;;;;;;;;17.40;99.90;;;;;;5015388;28;20020;-75
2023/10/04 14:51:26;;;;;;;;;;;17.30;99.90;;;;;;5015318;28;19925;-74
2023/10/04 14:53:55;;;;;;;;;;;17.30;99.90;;;;;;5015054;28;19925;-74
2023/10/04 14:56:23;;;;;;;;;;;17.20;99.90;;;;;;5015340;28;19929;-74
2023/10/04 14:58:49;;;;;;;;;;;17.20;99.90;;;;;;5014944;28;20065;-74
2023/10/04 15:01:17;;;;;;;;;;;17.20;99.90;;;;;;5015920;28;19932;-72
2023/10/04 15:03:45;;;;;;;;;;;17.20;99.90;;;;;;5014613;28;20101;-75
2023/10/04 15:06:15;;;;;;;;;;;17.20;99.90;;;;;;5013536;28;19983;-75
2023/10/04 15:08:44;;;;;;;;;;;17.20;99.90;;;;;;5015186;28;19971;-77
2023/10/04 15:11:11;;;;;;;;;;;17.10;99.90;;;;;;5015734;28;19934;-74
2023/10/04 15:13:39;;;;;;;;;;;17.10;99.90;;;;;;5013954;28;19925;-78
2023/10/04 15:16:06;;;;;;;;;;;17.10;99.90;;;;;;5014173;28;19926;-76
2023/10/04 15:18:33;;;;;;;;;;;17.10;99.90;;;;;;5015051;28;19933;-76
2023/10/04 15:21:00;;;;;;;;;;;17.00;99.90;;;;;;5013969;28;19925;-74
2023/10/04 15:23:28;;;;;;;;;;;17.00;99.90;;;;;;5013912;28;19926;-74
2023/10/04 15:25:55;;;;;;;;;;;16.90;99.90;;;;;;5013891;28;19926;-76
2023/10/04 15:28:22;;;;;;;;;;;16.80;99.90;;;;;;5015089;28;19926;-75
2023/10/04 15:30:51;;;;;;;;;;;16.80;99.90;;;;;;5017511;28;19927;-76
2023/10/04 15:33:17;;;;;;;;;;;16.80;99.90;;;;;;5017424;28;19925;-76
2023/10/04 15:35:45;;;;;;;;;;;16.70;99.90;;;;;;5017383;28;19926;-76
2023/10/04 15:38:12;;;;;;;;;;;16.70;99.90;;;;;;5017432;28;19933;-75
2023/10/04 15:40:39;;;;;;;;;;;16.60;99.90;;;;;;5017509;28;19926;-77
2023/10/04 15:43:08;;;;;;;;;;;16.60;99.90;;;;;;5017653;28;19925;-77
2023/10/04 15:45:34;;;;;;;;;;;16.50;99.90;;;;;;5017482;28;20387;-76
2023/10/04 15:48:08;;;;;;;;;;;16.40;99.90;;;;;;5018365;28;19926;-76
2023/10/04 15:50:37;;;;;;;;;;;16.20;99.90;;;;;;5018788;28;19972;-76
2023/10/04 15:53:04;;;;;;;;;;;16.10;99.90;;;;;;5017810;28;19948;-75
2023/10/04 15:55:31;;;;;;;;;;;16.00;99.90;;;;;;5017187;28;20406;-76
2023/10/04 15:57:57;;;;;;;;;;;15.90;99.90;;;;;;5017063;28;20307;-76
2023/10/04 16:00:32;;;;;;;;;;;15.80;99.90;;;;;;5016884;28;20398;-76
2023/10/04 16:03:00;;;;;;;;;;;15.60;99.90;;;;;;5016664;28;19926;-76
2023/10/04 16:05:28;;;;;;;;;;;15.50;99.90;;;;;;5016812;28;19925;-76
2023/10/04 16:07:55;;;;;;;;;;;15.40;99.90;;;;;;5016901;28;20024;-76
2023/10/04 16:10:23;;;;;;;;;;;15.30;99.90;;;;;;5016826;28;19932;-76
2023/10/04 16:12:50;;;;;;;;;;;15.10;99.90;;;;;;5017075;28;20028;-75
2023/10/04 16:15:17;;;;;;;;;;;14.90;99.90;;;;;;5016314;28;20008;-76
2023/10/04 16:17:43;;;;;;;;;;;14.70;99.90;;;;;;5016630;28;19936;-76
2023/10/04 16:20:11;;;;;;;;;;;14.60;99.90;;;;;;5016723;28;19932;-76
2023/10/04 16:22:39;;;;;;;;;;;14.40;99.90;;;;;;5016215;28;20402;-76
2023/10/04 16:25:06;;;;;;;;;;;14.20;99.90;;;;;;5016142;28;20336;-75
2023/10/04 16:27:33;;;;;;;;;;;14.10;99.90;;;;;;5016544;28;19930;-75
2023/10/04 16:30:00;;;;;;;;;;;13.90;99.90;;;;;;5016578;28;19926;-75
2023/10/04 16:32:27;;;;;;;;;;;13.80;99.90;;;;;;5016443;28;19933;-75
2023/10/04 16:34:53;;;;;;;;;;;13.60;99.90;;;;;;5016272;28;19930;-74
2023/10/04 16:37:22;;;;;;;;;;;13.40;99.90;;;;;;5016403;28;19925;-75
2023/10/04 16:39:50;;;;;;;;;;;13.30;99.90;;;;;;5015755;28;19925;-75
2023/10/04 16:42:16;;;;;;;;;;;13.20;99.90;;;;;;5016461;28;19933;-74
2023/10/04 16:44:43;;;;;;;;;;;13.00;99.90;;;;;;5016118;28;19926;-74
2023/10/04 16:47:09;;;;;;;;;;;12.90;99.90;;;;;;5016232;28;19926;-75
2023/10/04 16:49:36;;;;;;;;;;;12.80;99.90;;;;;;5015920;28;20325;-75
2023/10/04 16:52:03;;;;;;;;;;;12.70;99.90;;;;;;5016069;28;19980;-74
2023/10/04 16:54:32;;;;;;;;;;;12.60;99.90;;;;;;5016092;28;19979;-74
2023/10/04 16:57:00;;;;;;;;;;;12.50;99.90;;;;;;5016530;28;19932;-75
2023/10/04 16:59:26;;;;;;;;;;;12.40;99.90;;;;;;5016053;28;19925;-75
2023/10/04 17:01:53;;;;;;;;;;;12.30;99.90;;;;;;5015834;28;19932;-75
2023/10/04 17:04:19;;;;;;;;;;;12.20;99.90;;;;;;5015619;28;19925;-75
2023/10/04 17:06:46;;;;;;;;;;;12.10;99.90;;;;;;5015685;28;19929;-74
2023/10/04 17:09:14;;;;;;;;;;;12.10;99.90;;;;;;5015603;28;20280;-74
2023/10/04 17:11:42;;;;;;;;;;;12.00;99.90;;;;;;5015617;28;19926;-75
2023/10/04 17:14:10;;;;;;;;;;;11.90;99.90;;;;;;5015318;28;19988;-75
2023/10/04 17:16:36;;;;;;;;;;;11.80;99.90;;;;;;5015446;28;20390;-75
2023/10/04 17:19:03;;;;;;;;;;;11.80;99.90;;;;;;5015162;28;20355;-76
2023/10/04 17:21:30;;;;;;;;;;;11.70;99.90;;;;;;5015542;28;19972;-74
2023/10/04 17:23:56;;;;;;;;;;;11.70;99.90;;;;;;5015344;28;19972;-75
2023/10/04 17:26:23;;;;;;;;;;;11.60;99.90;;;;;;5015688;28;19926;-75
2023/10/04 17:28:49;;;;;;;;;;;11.60;99.90;;;;;;5015360;28;19926;-74
2023/10/04 17:31:17;;;;;;;;;;;11.50;99.90;;;;;;5015267;28;19925;-74
2023/10/04 17:33:44;;;;;;;;;;;11.40;99.90;;;;;;5014593;28;20342;-74
2023/10/04 17:36:10;;;;;;;;;;;11.30;99.90;;;;;;5014850;28;20379;-74
2023/10/04 17:38:37;;;;;;;;;;;11.30;99.90;;;;;;5014801;28;20383;-74
2023/10/04 17:41:04;;;;;;;;;;;11.20;99.90;;;;;;5015134;28;19985;-73
2023/10/04 17:43:31;;;;;;;;;;;11.10;99.90;;;;;;5015348;28;19940;-77
2023/10/04 17:45:57;;;;;;;;;;;11.10;99.90;;;;;;5015174;28;19932;-77
2023/10/04 17:48:24;;;;;;;;;;;11.10;99.90;;;;;;5015734;28;19933;-77
2023/10/04 17:50:50;;;;;;;;;;;11.10;99.90;;;;;;5014936;28;20390;-76
2023/10/04 17:53:17;;;;;;;;;;;11.00;99.90;;;;;;5013851;28;20391;-77
2023/10/04 17:55:44;;;;;;;;;;;11.00;99.90;;;;;;5014764;28;19926;-76
2023/10/04 17:58:11;;;;;;;;;;;10.90;99.90;;;;;;5014825;28;19933;-77
2023/10/04 18:00:37;;;;;;;;;;;10.90;99.90;;;;;;5014701;28;19926;-76
2023/10/04 18:03:04;;;;;;;;;;;10.90;99.90;;;;;;5014800;28;19965;-75
2023/10/04 18:05:32;;;;;;;;;;;10.80;99.90;;;;;;5014756;28;19929;-76
2023/10/04 18:07:59;;;;;;;;;;;10.80;99.90;;;;;;5014934;28;19972;-76
2023/10/04 18:10:26;;;;;;;;;;;10.80;99.90;;;;;;5014560;28;20314;-76
2023/10/04 18:12:53;;;;;;;;;;;10.70;99.90;;;;;;5014205;28;20024;-74
2023/10/04 18:15:21;;;;;;;;;;;10.70;99.90;;;;;;5014261;28;20382;-77
2023/10/04 18:17:48;;;;;;;;;;;10.70;99.90;;;;;;5015483;28;20013;-78
2023/10/04 18:20:15;;;;;;;;;;;10.60;99.90;;;;;;5014987;28;19933;-77
2023/10/04 18:22:43;;;;;;;;;;;10.60;99.90;;;;;;5014715;28;19926;-77
2023/10/04 18:25:10;;;;;;;;;;;10.50;99.90;;;;;;5016796;28;19932;-77
2023/10/04 18:27:36;;;;;;;;;;;10.50;99.90;;;;;;5016367;28;19929;-77
2023/10/04 18:30:06;;;;;;;;;;;10.40;99.90;;;;;;5016384;28;20386;-77
2023/10/04 18:32:32;;;;;;;;;;;10.40;99.90;;;;;;5015739;28;19972;-77
2023/10/04 18:34:59;;;;;;;;;;;10.40;99.90;;;;;;5016336;28;20391;-77
2023/10/04 18:37:26;;;;;;;;;;;10.30;99.90;;;;;;5016536;28;19952;-78
2023/10/04 18:39:54;;;;;;;;;;;10.30;99.90;;;;;;5015690;28;19925;-77
2023/10/04 18:42:21;;;;;;;;;;;10.30;99.90;;;;;;5015872;28;19926;-79
2023/10/04 18:44:47;;;;;;;;;;;10.30;99.90;;;;;;5017280;28;19933;-77
2023/10/04 18:47:15;;;;;;;;;;;10.30;99.90;;;;;;5015763;28;19925;-78
2023/10/04 18:49:41;;;;;;;;;;;10.20;99.90;;;;;;5016812;28;20314;-75
2023/10/04 18:52:09;;;;;;;;;;;10.20;99.90;;;;;;5014272;28;19925;-73
2023/10/04 18:54:36;;;;;;;;;;;10.10;99.90;;;;;;5014091;28;19929;-75
2023/10/04 18:57:05;;;;;;;;;;;10.10;99.90;;;;;;5014065;28;19930;-76
2023/10/04 18:59:32;;;;;;;;;;;10.10;99.90;;;;;;5014299;28;19925;-77
2023/10/04 19:01:58;;;;;;;;;;;10.00;99.90;;;;;;5014224;28;19929;-76
2023/10/04 19:04:25;;;;;;;;;;;9.90;99.90;;;;;;5016985;28;19926;-76
2023/10/04 19:06:53;;;;;;;;;;;9.90;99.90;;;;;;5017905;28;19925;-77
2023/10/04 19:09:20;;;;;;;;;;;9.80;99.90;;;;;;5017989;28;20012;-75
2023/10/04 19:11:46;;;;;;;;;;;9.70;99.90;;;;;;5018105;28;19930;-75
2023/10/04 19:14:14;;;;;;;;;;;9.70;99.90;;;;;;5017791;28;19926;-75
2023/10/04 19:16:41;;;;;;;;;;;9.60;99.90;;;;;;5017987;28;19929;-75
2023/10/04 19:19:09;;;;;;;;;;;9.60;99.90;;;;;;5017830;28;19932;-76
2023/10/04 19:21:36;;;;;;;;;;;9.50;99.90;;;;;;5018011;28;20015;-76
2023/10/04 19:24:02;;;;;;;;;;;9.40;99.90;;;;;;5018008;28;19976;-75
2023/10/04 19:26:29;;;;;;;;;;;9.40;99.90;;;;;;5017843;28;19932;-76
2023/10/04 19:28:55;;;;;;;;;;;9.30;99.90;;;;;;5017693;28;19948;-76
2023/10/04 19:31:24;;;;;;;;;;;9.20;99.90;;;;;;5018445;28;19926;-76
2023/10/04 19:33:50;;;;;;;;;;;9.10;99.90;;;;;;5017510;28;19925;-76
2023/10/04 19:36:20;;;;;;;;;;;9.00;99.90;;;;;;5017600;28;19995;-76
2023/10/04 19:38:47;;;;;;;;;;;9.00;99.90;;;;;;5017423;28;19937;-75
2023/10/04 19:41:15;;;;;;;;;;;8.90;99.90;;;;;;5017502;28;19926;-75
2023/10/04 19:43:42;;;;;;;;;;;8.90;99.90;;;;;;5017359;28;19925;-76
2023/10/04 19:46:09;;;;;;;;;;;8.80;99.90;;;;;;5017493;28;19983;-77
2023/10/04 19:48:37;;;;;;;;;;;8.70;99.90;;;;;;5017484;28;19925;-77
2023/10/04 19:51:07;;;;;;;;;;;8.70;99.90;;;;;;5017323;28;19925;-77
2023/10/04 19:53:34;;;;;;;;;;;8.70;99.90;;;;;;5016942;28;20045;-76
2023/10/04 19:56:00;;;;;;;;;;;8.60;99.90;;;;;;5016969;28;19980;-76
2023/10/04 19:58:27;;;;;;;;;;;8.50;99.90;;;;;;5016903;28;19929;-76
2023/10/04 20:00:55;;;;;;;;;;;8.50;99.90;;;;;;5016818;28;20011;-76
2023/10/04 20:03:22;;;;;;;;;;;8.50;99.90;;;;;;5016753;28;19972;-76
2023/10/04 20:05:50;;;;;;;;;;;8.40;99.90;;;;;;5016659;28;19925;-76
2023/10/04 20:08:20;;;;;;;;;;;8.40;99.90;;;;;;5016537;28;19975;-77
2023/10/04 20:10:47;;;;;;;;;;;8.30;99.90;;;;;;5016907;28;20000;-77
2023/10/04 20:13:15;;;;;;;;;;;8.30;99.90;;;;;;5016660;28;19932;-76
2023/10/04 20:15:41;;;;;;;;;;;8.30;99.90;;;;;;5015307;28;19964;-76
2023/10/04 20:18:08;;;;;;;;;;;8.20;99.90;;;;;;5016675;28;19973;-76
2023/10/04 20:20:35;;;;;;;;;;;8.10;99.90;;;;;;5016545;28;19925;-76
2023/10/04 20:23:03;;;;;;;;;;;8.10;99.90;;;;;;5016492;28;19932;-75
2023/10/04 20:25:32;;;;;;;;;;;8.00;99.90;;;;;;5016583;28;20008;-75
2023/10/04 20:27:59;;;;;;;;;;;8.00;99.90;;;;;;5016604;28;19984;-75
2023/10/04 20:30:27;;;;;;;;;;;8.00;99.90;;;;;;5016439;28;19925;-75
2023/10/04 20:32:54;;;;;;;;;;;8.00;99.90;;;;;;5016326;28;19932;-76
2023/10/04 20:35:21;;;;;;;;;;;7.90;99.90;;;;;;5016421;28;19933;-76
2023/10/04 20:37:47;;;;;;;;;;;7.90;99.90;;;;;;5016316;28;19930;-76
2023/10/04 20:40:15;;;;;;;;;;;7.80;99.90;;;;;;5016321;28;20298;-76
2023/10/04 20:42:43;;;;;;;;;;;7.80;99.90;;;;;;5016388;28;19925;-76
2023/10/04 20:45:11;;;;;;;;;;;7.80;99.90;;;;;;5016087;28;19965;-76
2023/10/04 20:47:37;;;;;;;;;;;7.80;99.90;;;;;;5015701;28;19936;-76
2023/10/04 20:50:05;;;;;;;;;;;7.70;99.90;;;;;;5015821;28;19926;-76
2023/10/04 20:52:32;;;;;;;;;;;7.70;99.90;;;;;;5015791;28;20405;-76
2023/10/04 20:54:58;;;;;;;;;;;7.60;99.90;;;;;;5015603;28;20391;-76
2023/10/04 20:57:26;;;;;;;;;;;7.60;99.90;;;;;;5015998;28;19925;-76
2023/10/04 20:59:53;;;;;;;;;;;7.50;99.90;;;;;;5015953;28;19948;-76
2023/10/04 21:02:20;;;;;;;;;;;7.50;99.90;;;;;;5015953;28;19925;-76
2023/10/04 21:04:47;;;;;;;;;;;7.40;99.90;;;;;;5016435;28;20276;-76
2023/10/04 21:07:13;;;;;;;;;;;7.40;99.90;;;;;;5017323;28;19933;-76
2023/10/04 21:09:40;;;;;;;;;;;7.40;99.90;;;;;;5015976;28;19933;-76
2023/10/04 21:12:07;;;;;;;;;;;7.30;99.90;;;;;;5015389;28;19925;-76
2023/10/04 21:14:35;;;;;;;;;;;7.30;99.90;;;;;;5015314;28;19925;-76
2023/10/04 21:17:01;;;;;;;;;;;7.20;99.90;;;;;;5015606;28;19926;-76
2023/10/04 21:19:31;;;;;;;;;;;7.20;99.90;;;;;;5015553;28;19933;-76
2023/10/04 21:21:57;;;;;;;;;;;7.20;99.90;;;;;;5015701;28;19925;-76
2023/10/04 21:24:25;;;;;;;;;;;7.20;99.90;;;;;;5015528;28;19933;-76
2023/10/04 21:26:51;;;;;;;;;;;7.10;99.90;;;;;;5016827;28;19932;-76
2023/10/04 21:29:18;;;;;;;;;;;7.10;99.90;;;;;;5015590;28;19929;-76
